createdAt,value
2023-02-16T00:00:28.737Z,0.00
2023-02-16T00:01:29.011Z,0.00
2023-02-16T00:02:31.220Z,0.00
2023-02-16T00:03:29.651Z,0.00
2023-02-16T00:04:31.769Z,0.00
2023-02-16T00:05:30.133Z,0.00
2023-02-16T00:06:30.442Z,0.00
2023-02-16T00:07:30.739Z,0.00
2023-02-16T00:08:32.924Z,0.00
2023-02-16T00:09:33.106Z,0.00
2023-02-16T00:10:31.616Z,0.00
2023-02-16T00:11:33.760Z,0.00
2023-02-16T00:12:33.967Z,0.00
2023-02-16T00:13:34.148Z,0.00
2023-02-16T00:14:32.908Z,0.00
2023-02-16T00:15:36.559Z,0.00
2023-02-16T00:16:35.275Z,0.00
2023-02-16T00:17:35.470Z,0.00
2023-02-16T00:18:35.662Z,0.00
2023-02-16T00:19:36.365Z,0.00
2023-02-16T00:20:35.689Z,0.00
2023-02-16T00:21:35.899Z,0.00
2023-02-16T00:22:36.322Z,0.00
2023-02-16T00:23:37.576Z,0.00
2023-02-16T00:24:37.755Z,0.00
2023-02-16T00:25:37.059Z,0.00
2023-02-16T00:26:36.418Z,0.00
2023-02-16T00:27:36.740Z,0.00
2023-02-16T00:28:37.047Z,0.00
2023-02-16T00:29:39.228Z,0.00
2023-02-16T00:30:37.601Z,0.00
2023-02-16T00:31:37.999Z,0.00
2023-02-16T00:32:38.162Z,0.00
2023-02-16T00:33:40.314Z,0.00
2023-02-16T00:34:40.508Z,0.00
2023-02-16T00:35:40.664Z,0.00
2023-02-16T00:36:40.838Z,0.00
2023-02-16T00:37:41.508Z,0.00
2023-02-16T00:38:41.698Z,0.00
2023-02-16T00:39:41.891Z,0.00
2023-02-16T00:40:42.054Z,0.00
2023-02-16T00:41:42.743Z,0.00
2023-02-16T00:42:42.954Z,0.00
2023-02-16T00:43:43.117Z,0.00
2023-02-16T00:44:43.316Z,0.00
2023-02-16T00:45:44.004Z,0.00
2023-02-16T00:46:44.164Z,0.00
2023-02-16T00:47:44.357Z,0.00
2023-02-16T00:48:45.422Z,0.00
2023-02-16T00:49:45.200Z,0.00
2023-02-16T00:50:45.407Z,0.00
2023-02-16T00:51:45.586Z,0.00
2023-02-16T00:52:45.775Z,0.00
2023-02-16T00:53:46.458Z,0.00
2023-02-16T00:54:46.638Z,0.00
2023-02-16T00:55:46.824Z,0.00
2023-02-16T00:56:45.460Z,0.00
2023-02-16T00:57:47.648Z,0.00
2023-02-16T00:58:46.037Z,0.00
2023-02-16T00:59:46.380Z,0.00
2023-02-16T01:00:48.566Z,0.00
2023-02-16T01:01:47.001Z,0.00
2023-02-16T01:02:49.127Z,0.00
2023-02-16T01:03:49.320Z,0.00
2023-02-16T01:04:49.529Z,0.00
2023-02-16T01:05:49.662Z,0.00
2023-02-16T01:06:50.349Z,0.00
2023-02-16T01:07:50.543Z,0.00
2023-02-16T01:08:49.036Z,0.00
2023-02-16T01:09:51.198Z,0.00
2023-02-16T01:10:51.395Z,0.00
2023-02-16T01:11:49.930Z,0.00
2023-02-16T01:12:52.120Z,0.00
2023-02-16T01:13:50.495Z,0.00
2023-02-16T01:14:52.691Z,0.00
2023-02-16T01:15:52.884Z,0.00
2023-02-16T01:16:51.396Z,0.00
2023-02-16T01:17:53.566Z,0.00
2023-02-16T01:18:51.945Z,0.00
2023-02-16T01:19:52.241Z,0.00
2023-02-16T01:20:54.424Z,0.00
2023-02-16T01:21:52.792Z,0.00
2023-02-16T01:22:55.005Z,0.00
2023-02-16T01:23:53.353Z,0.00
2023-02-16T01:24:53.649Z,0.00
2023-02-16T01:25:53.940Z,0.00
2023-02-16T01:26:54.239Z,0.00
2023-02-16T01:27:56.422Z,0.00
2023-02-16T01:28:54.797Z,0.00
2023-02-16T01:29:55.114Z,0.00
2023-02-16T01:30:57.373Z,0.00
2023-02-16T01:31:55.890Z,0.00
2023-02-16T01:32:55.934Z,0.00
2023-02-16T01:33:58.120Z,0.00
2023-02-16T01:34:56.489Z,0.00
2023-02-16T01:35:56.792Z,0.00
2023-02-16T01:36:57.094Z,0.00
2023-02-16T01:37:57.385Z,0.00
2023-02-16T01:38:59.589Z,0.00
2023-02-16T01:39:57.960Z,0.00
2023-02-16T01:41:00.153Z,0.00
2023-02-16T01:41:58.541Z,0.00
2023-02-16T01:42:58.840Z,0.00
2023-02-16T01:43:59.158Z,0.00
2023-02-16T01:44:59.498Z,0.00
2023-02-16T01:46:01.681Z,0.00
2023-02-16T01:47:00.045Z,0.00
2023-02-16T01:48:00.335Z,0.00
2023-02-16T01:49:02.520Z,0.00
2023-02-16T01:50:03.248Z,0.00
2023-02-16T01:51:01.377Z,0.00
2023-02-16T01:52:03.330Z,0.00
2023-02-16T01:53:01.715Z,0.00
2023-02-16T01:54:03.904Z,0.00
2023-02-16T01:55:02.271Z,0.00
2023-02-16T01:56:02.687Z,0.00
2023-02-16T01:57:02.840Z,0.00
2023-02-16T01:58:05.018Z,0.00
2023-02-16T01:59:03.389Z,0.00
2023-02-16T02:00:03.692Z,0.00
2023-02-16T02:01:04.227Z,0.00
2023-02-16T02:02:04.367Z,0.00
2023-02-16T02:03:06.514Z,0.00
2023-02-16T02:04:04.880Z,0.00
2023-02-16T02:05:05.199Z,0.00
2023-02-16T02:06:05.473Z,0.00
2023-02-16T02:07:05.781Z,0.00
2023-02-16T02:08:07.960Z,0.00
2023-02-16T02:09:08.143Z,0.00
2023-02-16T02:10:07.519Z,0.00
2023-02-16T02:11:07.677Z,0.00
2023-02-16T02:12:09.107Z,0.00
2023-02-16T02:13:09.383Z,0.00
2023-02-16T02:14:07.747Z,0.00
2023-02-16T02:15:08.049Z,0.00
2023-02-16T02:16:10.269Z,0.00
2023-02-16T02:17:10.447Z,0.00
2023-02-16T02:18:10.643Z,0.00
2023-02-16T02:19:10.830Z,0.00
2023-02-16T02:20:11.494Z,0.00
2023-02-16T02:21:11.666Z,0.00
2023-02-16T02:22:11.857Z,0.00
2023-02-16T02:23:12.051Z,0.00
2023-02-16T02:24:14.650Z,0.00
2023-02-16T02:25:12.908Z,0.00
2023-02-16T02:26:13.094Z,0.00
2023-02-16T02:27:13.273Z,0.00
2023-02-16T02:28:13.924Z,0.00
2023-02-16T02:29:14.134Z,0.00
2023-02-16T02:30:12.745Z,0.00
2023-02-16T02:31:14.965Z,0.00
2023-02-16T02:32:15.081Z,0.00
2023-02-16T02:33:13.545Z,0.00
2023-02-16T02:34:13.855Z,0.00
2023-02-16T02:35:14.152Z,0.00
2023-02-16T02:36:14.454Z,0.00
2023-02-16T02:37:16.673Z,0.00
2023-02-16T02:38:15.022Z,0.00
2023-02-16T02:39:15.321Z,0.00
2023-02-16T02:40:17.477Z,0.00
2023-02-16T02:41:17.676Z,0.00
2023-02-16T02:42:17.862Z,0.00
2023-02-16T02:43:18.022Z,0.00
2023-02-16T02:44:18.700Z,0.00
2023-02-16T02:45:18.901Z,0.00
2023-02-16T02:46:19.110Z,0.00
2023-02-16T02:47:19.290Z,0.00
2023-02-16T02:48:20.026Z,0.00
2023-02-16T02:49:20.136Z,0.00
2023-02-16T02:50:20.324Z,0.00
2023-02-16T02:51:20.554Z,0.00
2023-02-16T02:52:20.738Z,0.00
2023-02-16T02:53:20.926Z,0.00
2023-02-16T02:54:21.616Z,0.00
2023-02-16T02:55:21.801Z,0.00
2023-02-16T02:56:22.013Z,0.00
2023-02-16T02:57:22.188Z,0.00
2023-02-16T02:58:22.864Z,0.00
2023-02-16T02:59:23.048Z,0.00
2023-02-16T03:00:23.196Z,0.00
2023-02-16T03:01:23.400Z,0.00
2023-02-16T03:02:24.038Z,0.00
2023-02-16T03:03:22.406Z,0.00
2023-02-16T03:04:24.606Z,0.00
2023-02-16T03:05:22.987Z,0.00
2023-02-16T03:06:25.207Z,0.00
2023-02-16T03:07:25.406Z,0.00
2023-02-16T03:08:23.907Z,0.00
2023-02-16T03:09:26.105Z,0.00
2023-02-16T03:10:24.484Z,0.00
2023-02-16T03:11:24.795Z,0.00
2023-02-16T03:12:26.984Z,0.00
2023-02-16T03:13:25.356Z,0.00
2023-02-16T03:14:25.653Z,0.00
2023-02-16T03:15:25.958Z,0.00
2023-02-16T03:16:26.285Z,0.00
2023-02-16T03:17:26.557Z,0.00
2023-02-16T03:18:28.734Z,0.00
2023-02-16T03:19:27.117Z,0.00
2023-02-16T03:20:27.434Z,0.00
2023-02-16T03:21:29.625Z,0.00
2023-02-16T03:22:29.798Z,0.00
2023-02-16T03:23:28.318Z,0.00
2023-02-16T03:24:28.619Z,0.00
2023-02-16T03:25:28.918Z,0.00
2023-02-16T03:26:29.214Z,0.00
2023-02-16T03:27:31.416Z,0.00
2023-02-16T03:28:29.786Z,0.00
2023-02-16T03:29:30.086Z,0.00
2023-02-16T03:30:30.529Z,0.00
2023-02-16T03:31:30.754Z,0.00
2023-02-16T03:32:32.880Z,0.00
2023-02-16T03:33:31.254Z,0.00
2023-02-16T03:34:33.438Z,0.00
2023-02-16T03:35:31.814Z,0.00
2023-02-16T03:36:32.116Z,0.00
2023-02-16T03:37:32.427Z,0.00
2023-02-16T03:38:32.732Z,0.00
2023-02-16T03:39:34.936Z,0.00
2023-02-16T03:40:33.331Z,0.00
2023-02-16T03:41:33.662Z,0.00
2023-02-16T03:42:33.925Z,0.00
2023-02-16T03:43:34.227Z,0.00
2023-02-16T03:44:36.435Z,0.00
2023-02-16T03:45:34.904Z,0.00
2023-02-16T03:46:35.067Z,0.00
2023-02-16T03:47:37.264Z,0.00
2023-02-16T03:48:35.643Z,0.00
2023-02-16T03:49:35.954Z,0.00
2023-02-16T03:50:36.249Z,0.00
2023-02-16T03:51:36.554Z,0.00
2023-02-16T03:52:36.861Z,0.00
2023-02-16T03:53:39.063Z,0.00
2023-02-16T03:54:39.253Z,0.00
2023-02-16T03:55:39.451Z,0.00
2023-02-16T03:56:38.057Z,0.00
2023-02-16T03:57:40.254Z,0.00
2023-02-16T03:58:40.475Z,0.00
2023-02-16T03:59:39.803Z,0.00
2023-02-16T04:00:41.029Z,0.00
2023-02-16T04:01:39.411Z,0.00
2023-02-16T04:02:40.549Z,0.00
2023-02-16T04:03:41.939Z,0.00
2023-02-16T04:04:40.309Z,0.00
2023-02-16T04:05:40.623Z,0.00
2023-02-16T04:06:40.918Z,0.00
2023-02-16T04:07:41.227Z,0.00
2023-02-16T04:08:43.404Z,0.00
2023-02-16T04:09:41.790Z,0.00
2023-02-16T04:10:42.094Z,0.00
2023-02-16T04:11:42.393Z,0.00
2023-02-16T04:12:42.693Z,0.00
2023-02-16T04:13:44.891Z,0.00
2023-02-16T04:14:43.846Z,0.00
2023-02-16T04:15:45.464Z,0.00
2023-02-16T04:16:45.663Z,0.00
2023-02-16T04:17:45.851Z,0.00
2023-02-16T04:18:46.054Z,0.00
2023-02-16T04:19:46.734Z,0.00
2023-02-16T04:20:46.938Z,0.00
2023-02-16T04:21:47.115Z,0.00
2023-02-16T04:22:47.303Z,0.00
2023-02-16T04:23:46.073Z,0.00
2023-02-16T04:24:46.368Z,0.00
2023-02-16T04:25:48.545Z,0.00
2023-02-16T04:26:48.737Z,0.00
2023-02-16T04:27:47.231Z,0.00
2023-02-16T04:28:49.416Z,0.00
2023-02-16T04:29:47.797Z,0.00
2023-02-16T04:30:48.146Z,0.00
2023-02-16T04:31:48.541Z,0.00
2023-02-16T04:32:48.697Z,0.00
2023-02-16T04:33:50.902Z,0.00
2023-02-16T04:34:49.280Z,0.00
2023-02-16T04:35:51.465Z,0.00
2023-02-16T04:36:49.844Z,0.00
2023-02-16T04:37:50.145Z,0.00
2023-02-16T04:38:50.442Z,0.00
2023-02-16T04:39:50.733Z,0.00
2023-02-16T04:40:52.957Z,0.00
2023-02-16T04:41:51.308Z,0.00
2023-02-16T04:42:51.597Z,0.00
2023-02-16T04:43:51.900Z,0.00
2023-02-16T04:44:52.196Z,0.00
2023-02-16T04:45:54.448Z,0.00
2023-02-16T04:46:52.815Z,0.00
2023-02-16T04:47:55.017Z,0.00
2023-02-16T04:48:55.179Z,0.00
2023-02-16T04:49:55.383Z,0.00
2023-02-16T04:50:55.554Z,0.00
2023-02-16T04:51:56.346Z,0.00
2023-02-16T04:52:54.628Z,0.00
2023-02-16T04:53:56.802Z,0.00
2023-02-16T04:54:55.182Z,0.00
2023-02-16T04:55:57.367Z,0.00
2023-02-16T04:56:55.734Z,0.00
2023-02-16T04:57:57.888Z,0.00
2023-02-16T04:58:58.082Z,0.00
2023-02-16T04:59:56.569Z,0.00
2023-02-16T05:00:56.882Z,0.00
2023-02-16T05:01:59.112Z,0.00
2023-02-16T05:02:57.479Z,0.00
2023-02-16T05:03:57.787Z,0.00
2023-02-16T05:04:59.958Z,0.00
2023-02-16T05:05:58.341Z,0.00
2023-02-16T05:06:58.621Z,0.00
2023-02-16T05:07:58.907Z,0.00
2023-02-16T05:09:00.058Z,0.00
2023-02-16T05:09:59.434Z,0.00
2023-02-16T05:11:01.901Z,0.00
2023-02-16T05:11:59.952Z,0.00
2023-02-16T05:13:00.252Z,0.00
2023-02-16T05:14:00.540Z,0.00
2023-02-16T05:15:02.734Z,0.00
2023-02-16T05:16:04.413Z,0.00
2023-02-16T05:17:01.388Z,0.00
2023-02-16T05:18:01.681Z,0.00
2023-02-16T05:19:01.981Z,0.00
2023-02-16T05:20:04.165Z,0.00
2023-02-16T05:21:04.749Z,0.00
2023-02-16T05:22:03.676Z,0.00
2023-02-16T05:23:03.031Z,0.00
2023-02-16T05:24:05.225Z,0.00
2023-02-16T05:25:05.410Z,0.00
2023-02-16T05:26:05.611Z,0.00
2023-02-16T05:27:04.232Z,0.00
2023-02-16T05:28:04.623Z,0.00
2023-02-16T05:29:04.758Z,0.00
2023-02-16T05:30:06.978Z,0.00
2023-02-16T05:31:07.471Z,0.00
2023-02-16T05:32:05.747Z,0.00
2023-02-16T05:33:06.017Z,0.00
2023-02-16T05:34:08.213Z,0.00
2023-02-16T05:35:06.628Z,0.00
2023-02-16T05:36:06.893Z,0.00
2023-02-16T05:37:07.192Z,0.00
2023-02-16T05:38:07.493Z,0.00
2023-02-16T05:39:07.813Z,0.00
2023-02-16T05:40:09.994Z,0.00
2023-02-16T05:41:08.371Z,0.00
2023-02-16T05:42:08.682Z,0.00
2023-02-16T05:43:08.981Z,0.00
2023-02-16T05:44:09.280Z,0.00
2023-02-16T05:45:11.476Z,0.00
2023-02-16T05:46:09.891Z,0.00
2023-02-16T05:47:12.064Z,0.00
2023-02-16T05:48:10.435Z,0.00
2023-02-16T05:49:10.737Z,0.00
2023-02-16T05:50:12.909Z,0.00
2023-02-16T05:51:11.284Z,0.00
2023-02-16T05:52:11.575Z,0.00
2023-02-16T05:53:13.838Z,0.00
2023-02-16T05:54:13.983Z,0.00
2023-02-16T05:55:14.204Z,0.00
2023-02-16T05:56:13.733Z,0.00
2023-02-16T05:57:14.928Z,0.00
2023-02-16T05:58:15.074Z,0.00
2023-02-16T05:59:15.270Z,0.00
2023-02-16T06:00:14.880Z,0.00
2023-02-16T06:01:16.096Z,0.00
2023-02-16T06:02:16.306Z,0.00
2023-02-16T06:03:14.772Z,0.00
2023-02-16T06:04:16.959Z,0.00
2023-02-16T06:05:15.346Z,0.00
2023-02-16T06:06:15.653Z,0.00
2023-02-16T06:07:15.946Z,0.00
2023-02-16T06:08:18.127Z,0.00
2023-02-16T06:09:16.563Z,0.00
2023-02-16T06:10:18.737Z,0.00
2023-02-16T06:11:17.102Z,0.00
2023-02-16T06:12:17.404Z,0.00
2023-02-16T06:13:17.706Z,0.00
2023-02-16T06:14:19.875Z,0.00
2023-02-16T06:15:18.250Z,4.00
2023-02-16T06:16:18.586Z,4.00
2023-02-16T06:17:18.841Z,4.00
2023-02-16T06:18:19.136Z,4.00
2023-02-16T06:19:21.342Z,8.00
2023-02-16T06:20:19.693Z,8.00
2023-02-16T06:21:19.995Z,8.00
2023-02-16T06:22:20.295Z,12.00
2023-02-16T06:23:20.667Z,16.00
2023-02-16T06:24:22.824Z,16.00
2023-02-16T06:25:22.167Z,20.00
2023-02-16T06:26:23.433Z,24.00
2023-02-16T06:27:23.585Z,28.00
2023-02-16T06:28:23.777Z,32.00
2023-02-16T06:29:22.404Z,44.00
2023-02-16T06:30:24.648Z,52.00
2023-02-16T06:31:23.093Z,60.00
2023-02-16T06:32:25.382Z,68.00
2023-02-16T06:33:23.578Z,76.00
2023-02-16T06:34:23.876Z,84.00
2023-02-16T06:35:24.193Z,96.00
2023-02-16T06:36:24.529Z,108.00
2023-02-16T06:37:26.683Z,124.00
2023-02-16T06:38:26.857Z,140.00
2023-02-16T06:39:27.049Z,152.00
2023-02-16T06:40:27.239Z,164.00
2023-02-16T06:41:27.916Z,184.00
2023-02-16T06:42:28.100Z,216.00
2023-02-16T06:43:30.633Z,252.00
2023-02-16T06:44:27.811Z,280.00
2023-02-16T06:45:29.168Z,296.00
2023-02-16T06:46:29.665Z,300.00
2023-02-16T06:47:29.691Z,308.00
2023-02-16T06:48:29.862Z,316.00
2023-02-16T06:49:30.025Z,328.00
2023-02-16T06:50:31.673Z,356.00
2023-02-16T06:51:28.981Z,372.00
2023-02-16T06:52:31.164Z,400.00
2023-02-16T06:53:29.565Z,428.00
2023-02-16T06:54:31.776Z,444.00
2023-02-16T06:55:30.177Z,448.00
2023-02-16T06:56:34.219Z,424.00
2023-02-16T06:57:30.730Z,404.00
2023-02-16T06:58:32.914Z,392.00
2023-02-16T06:59:31.303Z,380.00
2023-02-16T07:00:31.665Z,392.00
2023-02-16T07:01:32.002Z,388.00
2023-02-16T07:02:34.162Z,416.00
2023-02-16T07:03:34.401Z,468.00
2023-02-16T07:04:32.835Z,516.00
2023-02-16T07:05:33.161Z,580.00
2023-02-16T07:06:34.401Z,644.00
2023-02-16T07:07:33.825Z,708.00
2023-02-16T07:08:36.060Z,732.00
2023-02-16T07:09:34.418Z,724.00
2023-02-16T07:10:49.055Z,760.00
2023-02-16T07:11:36.097Z,796.00
2023-02-16T07:12:35.757Z,848.00
2023-02-16T07:13:37.618Z,944.00
2023-02-16T07:14:35.882Z,968.00
2023-02-16T07:15:36.198Z,840.00
2023-02-16T07:16:36.581Z,736.00
2023-02-16T07:17:36.793Z,704.00
2023-02-16T07:18:38.962Z,760.00
2023-02-16T07:19:37.365Z,816.00
2023-02-16T07:20:37.694Z,788.00
2023-02-16T07:21:38.001Z,776.00
2023-02-16T07:22:38.310Z,784.00
2023-02-16T07:23:40.500Z,800.00
2023-02-16T07:24:38.900Z,796.00
2023-02-16T07:25:39.134Z,744.00
2023-02-16T07:26:39.467Z,800.00
2023-02-16T07:27:39.783Z,924.00
2023-02-16T07:28:41.961Z,1012.00
2023-02-16T07:29:40.374Z,1040.00
2023-02-16T07:30:40.705Z,1040.00
2023-02-16T07:31:41.110Z,1068.00
2023-02-16T07:32:41.327Z,1104.00
2023-02-16T07:33:43.513Z,1216.00
2023-02-16T07:34:41.975Z,1348.00
2023-02-16T07:35:42.178Z,1436.00
2023-02-16T07:36:42.397Z,1524.00
2023-02-16T07:37:44.594Z,1636.00
2023-02-16T07:38:42.997Z,1728.00
2023-02-16T07:39:45.146Z,1732.00
2023-02-16T07:40:43.668Z,1636.00
2023-02-16T07:41:45.882Z,1536.00
2023-02-16T07:42:44.291Z,1500.00
2023-02-16T07:43:46.468Z,1560.00
2023-02-16T07:44:44.871Z,1680.00
2023-02-16T07:45:46.076Z,1712.00
2023-02-16T07:46:47.394Z,1596.00
2023-02-16T07:47:45.793Z,1520.00
2023-02-16T07:48:46.122Z,1500.00
2023-02-16T07:49:46.452Z,1640.00
2023-02-16T07:50:48.634Z,1944.00
2023-02-16T07:51:48.816Z,2132.00
2023-02-16T07:52:47.343Z,2348.00
2023-02-16T07:53:47.680Z,2728.00
2023-02-16T07:54:48.021Z,2872.00
2023-02-16T07:55:50.208Z,2748.00
2023-02-16T07:56:48.607Z,2744.00
2023-02-16T07:57:48.942Z,2508.00
2023-02-16T07:58:51.124Z,2304.00
2023-02-16T07:59:49.523Z,2212.00
2023-02-16T08:00:52.653Z,2184.00
2023-02-16T08:01:51.987Z,2252.00
2023-02-16T08:02:52.246Z,2552.00
2023-02-16T08:03:52.746Z,2964.00
2023-02-16T08:04:53.011Z,3652.00
2023-02-16T08:05:51.378Z,4272.00
2023-02-16T08:06:52.577Z,4604.00
2023-02-16T08:07:53.744Z,5196.00
2023-02-16T08:08:53.897Z,5164.00
2023-02-16T08:09:54.282Z,5360.00
2023-02-16T08:10:54.471Z,5064.00
2023-02-16T08:11:54.658Z,4252.00
2023-02-16T08:12:53.320Z,3696.00
2023-02-16T08:13:53.662Z,3712.00
2023-02-16T08:14:53.998Z,3928.00
2023-02-16T08:15:54.335Z,4040.00
2023-02-16T08:16:56.890Z,4240.00
2023-02-16T08:17:54.921Z,5084.00
2023-02-16T08:18:57.228Z,6028.00
2023-02-16T08:19:55.517Z,6612.00
2023-02-16T08:21:04.325Z,6912.00
2023-02-16T08:21:57.185Z,6720.00
2023-02-16T08:22:56.457Z,7292.00
2023-02-16T08:23:58.665Z,7228.00
2023-02-16T08:24:57.073Z,6460.00
2023-02-16T08:25:57.415Z,6820.00
2023-02-16T08:26:57.751Z,7312.00
2023-02-16T08:27:58.092Z,6536.00
2023-02-16T08:29:00.365Z,6148.00
2023-02-16T08:30:00.540Z,6188.00
2023-02-16T08:31:00.664Z,5328.00
2023-02-16T08:32:00.882Z,5472.00
2023-02-16T08:33:01.555Z,6020.00
2023-02-16T08:34:01.758Z,6404.00
2023-02-16T08:35:01.906Z,6100.00
2023-02-16T08:36:02.480Z,5264.00
2023-02-16T08:37:00.849Z,6232.00
2023-02-16T08:38:03.068Z,6300.00
2023-02-16T08:39:03.211Z,6400.00
2023-02-16T08:40:01.736Z,6124.00
2023-02-16T08:41:03.925Z,6272.00
2023-02-16T08:42:02.328Z,5928.00
2023-02-16T08:43:04.490Z,5344.00
2023-02-16T08:44:04.673Z,5304.00
2023-02-16T08:45:03.206Z,5724.00
2023-02-16T08:46:03.850Z,6140.00
2023-02-16T08:47:03.886Z,6620.00
2023-02-16T08:48:04.205Z,6924.00
2023-02-16T08:49:06.400Z,6520.00
2023-02-16T08:50:04.801Z,5864.00
2023-02-16T08:51:05.140Z,5524.00
2023-02-16T08:52:05.474Z,6184.00
2023-02-16T08:53:05.818Z,6568.00
2023-02-16T08:54:08.004Z,6008.00
2023-02-16T08:55:06.428Z,5972.00
2023-02-16T08:56:07.063Z,5612.00
2023-02-16T08:57:07.051Z,5436.00
2023-02-16T08:58:07.370Z,5400.00
2023-02-16T08:59:09.560Z,4696.00
2023-02-16T09:00:07.997Z,3908.00
2023-02-16T09:01:08.387Z,3700.00
2023-02-16T09:02:08.524Z,3896.00
2023-02-16T09:03:09.159Z,4164.00
2023-02-16T09:04:11.039Z,3808.00
2023-02-16T09:05:09.440Z,3640.00
2023-02-16T09:06:09.805Z,4212.00
2023-02-16T09:07:10.022Z,3624.00
2023-02-16T09:08:10.351Z,3696.00
2023-02-16T09:09:12.545Z,3260.00
2023-02-16T09:10:10.968Z,2876.00
2023-02-16T09:11:11.312Z,2620.00
2023-02-16T09:12:11.646Z,2808.00
2023-02-16T09:13:12.022Z,2848.00
2023-02-16T09:14:14.193Z,2772.00
2023-02-16T09:15:12.473Z,2508.00
2023-02-16T09:16:14.755Z,2576.00
2023-02-16T09:17:13.130Z,2904.00
2023-02-16T09:18:13.339Z,3384.00
2023-02-16T09:19:13.689Z,3728.00
2023-02-16T09:20:14.132Z,3848.00
2023-02-16T09:21:16.210Z,3768.00
2023-02-16T09:22:14.613Z,3608.00
2023-02-16T09:23:16.799Z,3688.00
2023-02-16T09:24:15.204Z,3696.00
2023-02-16T09:25:16.266Z,3712.00
2023-02-16T09:26:17.728Z,3924.00
2023-02-16T09:27:16.018Z,4104.00
2023-02-16T09:28:16.357Z,3984.00
2023-02-16T09:29:16.691Z,4088.00
2023-02-16T09:30:17.054Z,4236.00
2023-02-16T09:31:19.303Z,4252.00
2023-02-16T09:32:17.581Z,4376.00
2023-02-16T09:33:17.921Z,4192.00
2023-02-16T09:34:19.166Z,3908.00
2023-02-16T09:35:20.525Z,3916.00
2023-02-16T09:36:20.607Z,4096.00
2023-02-16T09:37:19.139Z,4288.00
2023-02-16T09:38:21.337Z,4268.00
2023-02-16T09:39:21.555Z,4108.00
2023-02-16T09:40:22.719Z,3888.00
2023-02-16T09:41:22.886Z,3568.00
2023-02-16T09:42:21.494Z,3200.00
2023-02-16T09:43:21.884Z,2928.00
2023-02-16T09:44:22.214Z,2748.00
2023-02-16T09:45:22.463Z,2708.00
2023-02-16T09:46:23.843Z,2504.00
2023-02-16T09:47:23.034Z,2316.00
2023-02-16T09:48:23.384Z,2252.00
2023-02-16T09:49:22.773Z,2180.00
2023-02-16T09:50:50.195Z,2188.00
2023-02-16T09:51:33.880Z,2216.00
2023-02-16T09:52:24.683Z,2308.00
2023-02-16T09:53:23.964Z,2564.00
2023-02-16T09:54:24.210Z,2792.00
2023-02-16T09:55:24.545Z,2760.00
2023-02-16T09:56:26.728Z,2840.00
2023-02-16T09:57:25.136Z,2828.00
2023-02-16T09:58:26.346Z,2832.00
2023-02-16T09:59:26.685Z,2896.00
2023-02-16T10:00:25.969Z,3028.00
2023-02-16T10:01:28.190Z,3316.00
2023-02-16T10:02:26.604Z,3784.00
2023-02-16T10:03:26.906Z,4180.00
2023-02-16T10:04:28.058Z,4488.00
2023-02-16T10:05:27.473Z,4580.00
2023-02-16T10:06:28.666Z,4772.00
2023-02-16T10:07:28.059Z,5324.00
2023-02-16T10:08:30.254Z,5940.00
2023-02-16T10:09:30.453Z,6020.00
2023-02-16T10:10:30.625Z,5576.00
2023-02-16T10:11:30.809Z,5468.00
2023-02-16T10:12:31.486Z,5488.00
2023-02-16T10:13:31.678Z,5056.00
2023-02-16T10:14:31.865Z,4752.00
2023-02-16T10:15:32.080Z,4452.00
2023-02-16T10:16:32.830Z,4224.00
2023-02-16T10:17:32.943Z,3872.00
2023-02-16T10:18:33.117Z,3796.00
2023-02-16T10:19:33.293Z,3836.00
2023-02-16T10:20:33.504Z,4056.00
2023-02-16T10:21:34.168Z,3916.00
2023-02-16T10:22:34.333Z,3616.00
2023-02-16T10:23:32.873Z,3376.00
2023-02-16T10:24:33.254Z,3028.00
2023-02-16T10:25:33.464Z,2908.00
2023-02-16T10:26:33.685Z,2696.00
2023-02-16T10:27:35.879Z,2632.00
2023-02-16T10:28:34.306Z,2596.00
2023-02-16T10:29:34.560Z,2524.00
2023-02-16T10:30:36.739Z,2500.00
2023-02-16T10:31:35.178Z,2404.00
2023-02-16T10:32:37.311Z,2304.00
2023-02-16T10:33:37.522Z,2384.00
2023-02-16T10:34:35.930Z,2364.00
2023-02-16T10:35:36.273Z,2348.00
2023-02-16T10:36:36.618Z,2376.00
2023-02-16T10:37:36.962Z,2424.00
2023-02-16T10:38:39.176Z,2560.00
2023-02-16T10:39:37.551Z,2540.00
2023-02-16T10:40:39.761Z,2856.00
2023-02-16T10:41:38.152Z,3140.00
2023-02-16T10:42:38.485Z,3448.00
2023-02-16T10:43:42.134Z,3508.00
2023-02-16T10:44:40.009Z,3420.00
2023-02-16T10:45:41.256Z,3276.00
2023-02-16T10:46:39.694Z,3276.00
2023-02-16T10:47:41.854Z,3324.00
2023-02-16T10:48:40.265Z,3208.00
2023-02-16T10:49:40.608Z,3240.00
2023-02-16T10:50:42.804Z,3144.00
2023-02-16T10:51:41.205Z,2936.00
2023-02-16T10:52:43.398Z,2820.00
2023-02-16T10:53:41.824Z,2848.00
2023-02-16T10:54:42.974Z,2764.00
2023-02-16T10:55:42.418Z,2752.00
2023-02-16T10:56:42.631Z,2788.00
2023-02-16T10:57:44.823Z,2944.00
2023-02-16T10:58:43.229Z,3328.00
2023-02-16T10:59:45.434Z,3552.00
2023-02-16T11:00:43.825Z,3572.00
2023-02-16T11:01:44.189Z,3488.00
2023-02-16T11:02:44.511Z,3516.00
2023-02-16T11:03:44.859Z,3748.00
2023-02-16T11:04:47.060Z,3624.00
2023-02-16T11:05:45.375Z,3332.00
2023-02-16T11:06:45.590Z,3172.00
2023-02-16T11:07:45.932Z,3336.00
2023-02-16T11:08:48.178Z,3736.00
2023-02-16T11:09:46.487Z,4476.00
2023-02-16T11:10:46.697Z,4372.00
2023-02-16T11:11:47.046Z,4136.00
2023-02-16T11:12:47.384Z,4364.00
2023-02-16T11:13:49.589Z,3684.00
2023-02-16T11:14:48.000Z,3408.00
2023-02-16T11:15:48.364Z,3528.00
2023-02-16T11:16:48.560Z,3700.00
2023-02-16T11:17:48.908Z,3864.00
2023-02-16T11:18:51.099Z,3572.00
2023-02-16T11:19:51.281Z,2856.00
2023-02-16T11:20:51.476Z,2752.00
2023-02-16T11:21:51.154Z,2832.00
2023-02-16T11:22:51.301Z,2892.00
2023-02-16T11:23:52.665Z,2996.00
2023-02-16T11:24:51.881Z,3612.00
2023-02-16T11:25:52.235Z,4096.00
2023-02-16T11:26:52.455Z,3932.00
2023-02-16T11:27:53.716Z,3700.00
2023-02-16T11:28:53.882Z,4404.00
2023-02-16T11:29:52.450Z,5360.00
2023-02-16T11:30:52.817Z,5936.00
2023-02-16T11:31:53.079Z,5080.00
2023-02-16T11:32:55.198Z,4380.00
2023-02-16T11:33:55.382Z,3924.00
2023-02-16T11:34:53.910Z,3804.00
2023-02-16T11:35:54.268Z,3824.00
2023-02-16T11:36:55.562Z,3340.00
2023-02-16T11:37:55.750Z,3112.00
2023-02-16T11:38:57.016Z,3004.00
2023-02-16T11:39:56.331Z,3240.00
2023-02-16T11:40:56.679Z,3440.00
2023-02-16T11:41:56.903Z,3188.00
2023-02-16T11:42:58.154Z,3204.00
2023-02-16T11:43:58.353Z,3240.00
2023-02-16T11:44:59.491Z,3720.00
2023-02-16T11:45:57.171Z,4160.00
2023-02-16T11:46:59.356Z,3804.00
2023-02-16T11:47:57.765Z,3400.00
2023-02-16T11:48:59.945Z,2960.00
2023-02-16T11:50:00.148Z,3168.00
2023-02-16T11:51:00.348Z,3268.00
2023-02-16T11:52:00.496Z,3144.00
2023-02-16T11:53:01.172Z,3348.00
2023-02-16T11:54:01.368Z,3276.00
2023-02-16T11:55:01.598Z,3212.00
2023-02-16T11:56:02.176Z,3792.00
2023-02-16T11:57:02.429Z,4540.00
2023-02-16T11:58:02.607Z,5496.00
2023-02-16T11:59:02.772Z,7092.00
2023-02-16T12:00:02.980Z,6760.00
2023-02-16T12:01:04.065Z,5144.00
2023-02-16T12:02:03.849Z,4604.00
2023-02-16T12:03:04.032Z,4660.00
2023-02-16T12:04:04.294Z,4460.00
2023-02-16T12:05:02.806Z,4492.00
2023-02-16T12:06:03.139Z,4640.00
2023-02-16T12:07:05.320Z,4648.00
2023-02-16T12:08:03.741Z,5076.00
2023-02-16T12:09:05.921Z,5452.00
2023-02-16T12:10:04.202Z,5364.00
2023-02-16T12:11:06.828Z,5156.00
2023-02-16T12:12:04.832Z,5208.00
2023-02-16T12:13:05.049Z,5464.00
2023-02-16T12:14:07.232Z,5592.00
2023-02-16T12:15:05.636Z,5480.00
2023-02-16T12:16:08.937Z,4948.00
2023-02-16T12:17:06.187Z,4448.00
2023-02-16T12:18:09.826Z,4164.00
2023-02-16T12:19:10.000Z,3848.00
2023-02-16T12:20:07.064Z,3756.00
2023-02-16T12:21:09.263Z,3948.00
2023-02-16T12:22:07.693Z,4088.00
2023-02-16T12:23:09.865Z,4084.00
2023-02-16T12:24:08.167Z,4140.00
2023-02-16T12:25:10.393Z,4348.00
2023-02-16T12:26:08.644Z,4688.00
2023-02-16T12:27:08.988Z,5036.00
2023-02-16T12:28:09.320Z,6248.00
2023-02-16T12:29:11.504Z,6248.00
2023-02-16T12:30:09.973Z,6020.00
2023-02-16T12:31:12.149Z,5636.00
2023-02-16T12:32:10.491Z,4668.00
2023-02-16T12:33:10.721Z,4152.00
2023-02-16T12:34:11.062Z,4320.00
2023-02-16T12:35:13.237Z,4800.00
2023-02-16T12:36:11.523Z,4504.00
2023-02-16T12:37:13.733Z,4072.00
2023-02-16T12:38:12.143Z,4292.00
2023-02-16T12:39:12.476Z,4648.00
2023-02-16T12:40:12.818Z,4468.00
2023-02-16T12:41:13.190Z,3980.00
2023-02-16T12:42:15.341Z,3436.00
2023-02-16T12:43:13.783Z,3104.00
2023-02-16T12:44:14.088Z,3036.00
2023-02-16T12:45:14.419Z,3240.00
2023-02-16T12:46:16.612Z,3304.00